Time;durP1;ratioP1;P1;durP2;ratioP2;P2;SDS_P1;SDS_P2;PMS_P1;PMS_P2;Temp;Humidity;BMP_temperature;BMP_pressure;BME280_temperature;BME280_humidity;BME280_pressure;Samples;Min_cycle;Max_cycle;Signal;HPM_P1;HPM_P2
2023/03/28 00:01:08;;;;;;;3.20;1.10;;;0.80;99.90;;;-0.95;100.00;101080.50;4956797;28;20036;-79
2023/03/28 00:03:38;;;;;;;4.55;1.75;;;0.90;99.90;;;-0.84;100.00;101081.44;4960142;28;20069;-80
2023/03/28 00:06:09;;;;;;;4.53;1.00;;;0.90;99.90;;;-0.81;100.00;101096.13;4942067;28;20045;-80
2023/03/28 00:08:38;;;;;;;4.32;1.38;;;0.90;99.90;;;-0.81;100.00;101098.69;4962140;28;20038;-80
2023/03/28 00:11:18;;;;;;;3.38;1.20;;;1.00;99.90;;;-0.78;100.00;101090.94;4970356;28;20434;-80
2023/03/28 00:13:59;;;;;;;3.80;1.17;;;1.00;99.90;;;-0.81;100.00;101096.13;4978884;28;20053;-80
2023/03/28 00:16:32;;;;;;;3.83;1.52;;;1.80;99.90;;;-0.88;100.00;101111.59;4944842;28;20073;-80
2023/03/28 00:19:01;;;;;;;4.40;1.20;;;0.90;99.90;;;-0.94;100.00;101113.25;4977188;28;20027;-80
2023/03/28 00:21:31;;;;;;;2.42;1.20;;;0.80;99.90;;;-0.97;100.00;101123.56;4957380;28;20515;-79
2023/03/28 00:24:03;;;;;;;2.85;1.20;;;0.80;99.90;;;-0.93;100.00;101120.16;4935084;28;20034;-80
2023/03/28 00:26:36;;;;;;;5.43;1.35;;;0.90;99.90;;;-0.91;100.00;101118.44;4958459;28;20525;-78
2023/03/28 00:29:05;;;;;;;2.20;1.15;;;0.90;99.90;;;-0.81;100.00;101128.00;4957332;28;20077;-79
2023/03/28 00:31:33;;;;;;;4.88;1.17;;;0.90;99.90;;;-0.79;100.00;101126.28;4987636;28;20023;-79
2023/03/28 00:34:04;;;;;;;3.67;1.27;;;0.90;99.90;;;-0.81;100.00;101134.91;4961286;28;20145;-79
2023/03/28 00:36:31;;;;;;;3.03;1.50;;;0.90;99.90;;;-0.87;100.00;101127.94;4924350;28;20105;-78
2023/03/28 00:39:05;;;;;;;5.85;1.27;;;0.80;99.90;;;-1.00;100.00;101123.56;4956687;28;20034;-79
2023/03/28 00:41:34;;;;;;;5.60;1.38;;;0.80;99.90;;;-1.09;100.00;101120.03;4946101;28;20629;-78
2023/03/28 00:44:01;;;;;;;3.03;1.35;;;0.70;99.90;;;-1.17;99.43;101126.88;4959920;28;20088;-79
2023/03/28 00:46:37;;;;;;;4.28;1.38;;;0.60;99.90;;;-1.23;99.21;101124.25;4953248;28;20030;-80
2023/03/28 00:49:11;;;;;;;3.75;1.40;;;0.50;99.90;;;-1.22;99.17;101123.38;4943021;28;20049;-79
2023/03/28 00:51:45;;;;;;;3.30;1.73;;;0.60;99.90;;;-1.19;98.32;101125.13;4978947;28;20041;-79
2023/03/28 00:54:26;;;;;;;4.25;2.08;;;0.50;99.90;;;-1.18;98.14;101132.91;4979980;28;20030;-79
2023/03/28 00:57:00;;;;;;;3.42;1.55;;;0.50;99.90;;;-1.14;97.07;101154.47;4974829;28;20027;-79
2023/03/28 00:59:32;;;;;;;4.78;1.30;;;0.60;99.90;;;-1.10;97.28;101151.94;4930210;28;20459;-79
2023/03/28 01:01:59;;;;;;;4.85;1.73;;;0.60;99.90;;;-1.02;97.27;101158.88;4955004;28;20038;-80
2023/03/28 01:04:37;;;;;;;5.07;1.70;;;0.60;99.90;;;-1.01;98.07;101165.78;4964039;28;20097;-78
2023/03/28 01:07:05;;;;;;;3.92;1.33;;;0.60;99.90;;;-1.02;98.31;101162.31;4953153;28;20060;-78
2023/03/28 01:09:31;;;;;;;2.30;1.48;;;;;;;-1.04;98.81;101170.06;4956728;28;20038;-78
2023/03/28 01:11:58;;;;;;;4.53;1.50;;;0.70;99.90;;;-0.97;98.42;101163.22;4938822;28;20045;-79
2023/03/28 01:14:27;;;;;;;4.97;1.83;;;0.70;99.90;;;-1.00;98.45;101160.59;4967960;28;20113;-79
2023/03/28 01:17:01;;;;;;;4.20;1.77;;;0.70;99.90;;;-1.12;98.96;101165.69;4985889;28;20034;-79
2023/03/28 01:20:12;;;;;;;4.63;1.60;;;0.60;99.90;;;-1.22;99.24;101162.16;4981948;28;20057;-79
2023/03/28 01:23:27;;;;;;;4.57;1.42;;;0.50;99.90;;;-1.42;99.40;101163.69;4983185;28;20061;-78
2023/03/28 01:26:13;;;;;;;3.53;1.30;;;0.30;99.90;;;-1.54;99.66;101161.84;4955086;28;20054;-78
2023/03/28 01:28:50;;;;;;;3.30;1.25;;;0.20;99.90;;;-1.66;100.00;101171.22;4976451;28;20053;-78
2023/03/28 01:32:00;;;;;;;3.95;1.63;;;0.20;99.90;;;-1.69;100.00;101178.03;4981250;28;20113;-78
2023/03/28 01:34:59;;;;;;;2.55;1.23;;;0.20;99.90;;;-1.73;100.00;101179.75;4982713;28;20039;-79
2023/03/28 01:38:18;;;;;;;2.03;0.73;;;0.10;99.90;;;-1.79;100.00;101178.78;4981522;28;20050;-78
2023/03/28 01:41:27;;;;;;;4.63;1.30;;;0.00;99.90;;;-1.87;100.00;101182.16;4972704;28;20117;-79
2023/03/28 01:44:34;;;;;;;3.55;1.17;;;0.00;99.90;;;-1.87;100.00;101191.63;4999984;28;20553;-78
2023/03/28 01:47:41;;;;;;;3.03;1.13;;;0.00;99.90;;;-1.93;100.00;101196.69;4988519;28;20088;-78
2023/03/28 01:50:17;;;;;;;2.53;0.95;;;-0.10;99.90;;;-1.98;100.00;101199.22;4979189;28;20042;-78
2023/03/28 01:53:02;;;;;;;3.67;1.67;;;-0.10;99.90;;;-2.00;100.00;101203.50;4991122;28;20034;-77
2023/03/28 01:55:43;;;;;;;4.50;1.30;;;-0.10;99.90;;;-2.01;100.00;101206.91;4977104;28;20119;-78
2023/03/28 01:58:21;;;;;;;5.25;1.40;;;-0.20;99.90;;;-2.06;100.00;101201.69;4965947;28;20132;-78
2023/03/28 02:01:01;;;;;;;5.18;1.50;;;-0.20;99.90;;;-2.03;100.00;101208.66;4948818;28;20035;-79
2023/03/28 02:03:41;;;;;;;5.95;1.80;;;-0.20;99.90;;;-1.99;100.00;101214.69;4983011;28;20403;-78
2023/03/28 02:06:10;;;;;;;4.50;1.25;;;-0.20;99.90;;;-2.00;100.00;101211.25;4945799;28;20031;-78
2023/03/28 02:08:39;;;;;;;5.78;1.73;;;-0.10;99.90;;;-1.98;100.00;101219.88;4980871;28;20034;-78
2023/03/28 02:11:09;;;;;;;2.10;1.20;;;-0.10;99.90;;;-1.97;100.00;101219.03;4927026;28;20069;-78
2023/03/28 02:13:48;;;;;;;3.33;1.65;;;-0.10;99.90;;;-1.95;100.00;101219.91;4956900;28;20034;-78
2023/03/28 02:16:15;;;;;;;3.40;1.30;;;-0.10;99.90;;;-1.96;100.00;101233.66;4972421;28;20039;-78
2023/03/28 02:18:50;;;;;;;1.15;0.90;;;-0.10;99.90;;;-1.98;100.00;101237.09;4957494;28;20511;-78
2023/03/28 02:21:24;;;;;;;4.80;1.15;;;-0.10;99.90;;;-1.97;100.00;101234.50;4961557;28;20498;-78
2023/03/28 02:23:57;;;;;;;4.22;0.88;;;-0.10;99.90;;;-1.94;100.00;101244.88;4997007;28;20027;-77
2023/03/28 02:26:25;;;;;;;2.60;0.90;;;-0.10;99.90;;;-1.95;99.63;101240.56;4961550;28;20035;-77
2023/03/28 02:28:55;;;;;;;1.80;1.10;;;-0.10;99.90;;;-1.98;99.54;101250.00;4972611;28;20158;-77
2023/03/28 02:31:23;;;;;;;2.20;1.08;;;-0.10;99.90;;;-1.96;98.82;101244.00;4977326;28;20035;-78
2023/03/28 02:33:52;;;;;;;7.13;1.33;;;-0.10;99.90;;;-1.95;98.18;101250.88;4960889;28;20026;-79
2023/03/28 02:36:47;;;;;;;3.03;1.13;;;-0.10;99.90;;;-1.97;98.17;101254.28;4964239;28;20038;-78
2023/03/28 02:39:43;;;;;;;3.75;1.45;;;-0.10;99.90;;;-2.00;98.10;101256.84;4977290;28;20034;-77
2023/03/28 02:43:01;;;;;;;2.00;1.03;;;-0.20;99.90;;;-2.06;97.64;101255.91;4957666;28;20050;-78
2023/03/28 02:45:32;;;;;;;2.90;1.48;;;-0.20;99.90;;;-2.06;97.85;101261.06;4976575;28;20293;-79
2023/03/28 02:48:01;;;;;;;3.63;1.20;;;-0.20;99.90;;;-2.08;97.72;101255.00;4960381;28;20423;-79
2023/03/28 02:50:29;;;;;;;9.43;1.65;;;-0.20;99.90;;;-2.12;98.19;101260.09;4967739;28;20053;-78
2023/03/28 02:53:26;;;;;;;7.28;1.85;;;-0.30;99.90;;;-2.13;98.61;101258.38;4982266;28;20038;-78
2023/03/28 02:56:03;;;;;;;3.25;1.80;;;-0.30;99.90;;;-2.17;98.17;101261.78;4958993;28;20034;-78
2023/03/28 02:58:54;;;;;;;3.28;1.33;;;-0.30;99.90;;;-2.19;98.27;101260.88;4970310;28;20042;-78
2023/03/28 03:01:27;;;;;;;1.23;0.88;;;-0.40;99.90;;;-2.24;98.68;101272.84;5000558;28;20110;-77
2023/03/28 03:03:56;;;;;;;3.33;1.40;;;-0.40;99.90;;;-2.31;98.86;101272.75;4971105;28;20030;-77
2023/03/28 03:06:22;;;;;;;2.13;0.95;;;-0.40;99.90;;;-2.29;98.82;101275.34;4985016;28;20105;-78
2023/03/28 03:08:48;;;;;;;3.33;1.20;;;-0.40;99.90;;;-2.31;98.91;101274.44;4990859;28;20031;-77
2023/03/28 03:11:14;;;;;;;11.82;1.38;;;-0.40;99.90;;;-2.33;99.37;101283.91;4950511;28;20110;-77
2023/03/28 03:13:42;;;;;;;2.50;0.93;;;-0.40;99.90;;;-2.35;99.64;101290.75;4960580;28;20054;-78
2023/03/28 03:16:09;;;;;;;5.50;1.23;;;-0.40;99.90;;;-2.32;99.63;101283.03;4955544;28;20438;-77
2023/03/28 03:18:35;;;;;;;3.83;0.90;;;-0.40;99.90;;;-2.29;99.59;101291.72;4957737;28;20065;-77
2023/03/28 03:21:02;;;;;;;4.30;1.15;;;-0.40;99.90;;;-2.23;100.00;101290.06;4950359;28;20046;-77
2023/03/28 03:23:28;;;;;;;6.78;0.70;;;-0.40;99.90;;;-2.21;99.40;101298.69;4973132;28;20038;-77
2023/03/28 03:25:54;;;;;;;2.67;0.80;;;-0.30;99.90;;;-2.20;99.62;101295.25;4955398;28;20022;-77
2023/03/28 03:28:20;;;;;;;2.42;0.75;;;-0.30;99.90;;;-2.21;99.25;101301.25;4979838;28;20049;-77
2023/03/28 03:30:46;;;;;;;0.73;0.40;;;-0.30;99.90;;;-2.21;99.26;101311.59;4965570;28;20055;-77
2023/03/28 03:33:13;;;;;;;3.25;0.70;;;-0.30;99.90;;;-2.20;98.54;101318.47;4959115;28;20081;-77
2023/03/28 03:35:40;;;;;;;4.03;1.20;;;-0.30;99.90;;;-2.16;98.47;101320.25;4992617;28;20042;-78
2023/03/28 03:38:07;;;;;;;1.42;0.57;;;-0.30;99.90;;;-2.15;98.62;101320.28;4970227;28;20034;-77
2023/03/28 03:40:33;;;;;;;1.83;0.60;;;-0.30;99.90;;;-2.11;98.21;101328.94;4955098;28;20046;-76
2023/03/28 03:42:59;;;;;;;3.25;1.02;;;-0.30;99.90;;;-2.15;98.31;101335.75;4977014;28;20117;-77
2023/03/28 03:45:25;;;;;;;7.53;0.95;;;-0.30;99.90;;;-2.16;98.25;101323.72;4970603;28;20043;-77
2023/03/28 03:47:51;;;;;;;2.10;0.50;;;-0.30;99.90;;;-2.14;98.35;101329.78;4962183;28;20030;-76
2023/03/28 03:50:20;;;;;;;2.58;0.77;;;-0.20;99.90;;;-2.13;97.31;101328.91;4982365;28;20102;-77
2023/03/28 03:52:45;;;;;;;4.78;0.80;;;-0.20;99.90;;;-2.08;97.21;101328.97;4952380;28;21212;-77
2023/03/28 03:55:13;;;;;;;5.45;0.90;;;-0.20;99.90;;;-2.09;96.46;101335.00;4955044;28;20276;-76
2023/03/28 03:57:39;;;;;;;6.30;1.15;;;-0.20;99.90;;;-2.11;96.07;101334.09;4972334;28;20050;-77
2023/03/28 04:00:12;;;;;;;2.13;0.80;;;-0.20;99.90;;;-2.13;95.74;101339.25;4972171;28;20565;-77
2023/03/28 04:02:39;;;;;;;2.10;0.73;;;-0.30;99.90;;;-2.18;94.85;101334.84;4966241;28;20570;-76
2023/03/28 04:05:08;;;;;;;2.38;0.77;;;-0.30;99.90;;;-2.21;94.60;101345.13;4945121;28;20054;-77
2023/03/28 04:07:34;;;;;;;18.50;0.95;;;-0.30;99.90;;;-2.25;94.68;101348.50;4959159;28;20046;-76
2023/03/28 04:10:00;;;;;;;5.57;1.20;;;-0.40;99.90;;;-2.32;94.21;101348.41;4956010;28;20416;-76
2023/03/28 04:12:26;;;;;;;2.22;0.98;;;-0.40;99.90;;;-2.33;93.98;101356.13;4950094;28;20065;-76
2023/03/28 04:14:52;;;;;;;2.10;0.68;;;-0.40;99.90;;;-2.34;93.79;101360.41;4975979;28;20034;-76
2023/03/28 04:17:20;;;;;;;2.10;0.80;;;-0.40;99.90;;;-2.31;93.66;101364.72;4960061;28;20043;-77
2023/03/28 04:19:46;;;;;;;2.30;0.60;;;-0.50;99.90;;;-2.34;93.57;101367.28;4959177;28;20038;-76
2023/03/28 04:22:12;;;;;;;2.05;0.63;;;-0.40;99.90;;;-2.31;92.96;101369.91;4999284;28;20097;-76
2023/03/28 04:24:43;;;;;;;5.65;1.02;;;-0.50;99.90;;;-2.32;93.11;101375.91;4965443;28;20114;-76
2023/03/28 04:27:10;;;;;;;4.63;0.85;;;-0.50;99.90;;;-2.34;93.15;101375.88;4964933;28;20108;-76
2023/03/28 04:29:38;;;;;;;3.28;1.20;;;-0.50;99.90;;;-2.32;93.41;101379.34;4974953;28;20146;-77
2023/03/28 04:32:05;;;;;;;1.70;0.88;;;-0.40;99.90;;;-2.32;92.90;101386.22;4960375;28;20062;-76
2023/03/28 04:34:32;;;;;;;5.00;1.10;;;-0.50;99.90;;;-2.33;92.71;101380.22;4967429;28;20031;-76
2023/03/28 04:37:04;;;;;;;1.85;0.90;;;-0.50;99.90;;;-2.35;93.18;101383.63;4941316;28;20027;-76
2023/03/28 04:39:38;;;;;;;3.30;1.20;;;-0.50;99.90;;;-2.43;92.33;101383.47;4971862;28;20059;-76
2023/03/28 04:42:04;;;;;;;2.63;0.88;;;-0.60;99.90;;;-2.52;91.98;101383.31;4982136;28;20044;-76
2023/03/28 04:44:30;;;;;;;0.52;0.30;;;-0.70;99.90;;;-2.60;91.98;101387.47;4970019;28;20031;-75
2023/03/28 04:46:57;;;;;;;1.58;0.52;;;-0.70;99.90;;;-2.62;91.92;101390.00;4957546;28;20046;-76
2023/03/28 04:49:24;;;;;;;3.13;0.68;;;-0.70;99.90;;;-2.63;92.29;101390.88;4976780;28;20392;-76
2023/03/28 04:51:53;;;;;;;2.22;0.57;;;0.30;99.90;;;-2.66;91.66;101389.94;4967682;28;20414;-77
2023/03/28 04:54:19;;;;;;;2.83;0.85;;;-0.70;99.90;;;-2.64;91.84;101403.72;4965637;28;20043;-76
2023/03/28 04:56:49;;;;;;;5.85;0.93;;;-0.80;99.90;;;-2.66;92.11;101401.09;4975020;28;20038;-76
2023/03/28 04:59:16;;;;;;;7.32;0.73;;;-0.80;99.90;;;-2.66;92.33;101408.84;4951566;28;20041;-77
2023/03/28 05:01:48;;;;;;;3.00;0.75;;;-0.80;99.90;;;-2.68;92.14;101410.50;4965453;28;20046;-77
2023/03/28 05:04:18;;;;;;;4.28;0.68;;;-0.80;99.90;;;-2.67;92.21;101416.56;4972923;28;20155;-76
2023/03/28 05:06:45;;;;;;;4.38;0.90;;;-0.80;99.90;;;-2.64;92.22;101417.47;4977861;28;20030;-76
2023/03/28 05:09:12;;;;;;;3.17;0.50;;;-0.80;99.90;;;-2.59;92.05;101430.44;4984465;28;20049;-76
2023/03/28 05:11:39;;;;;;;3.63;0.82;;;-0.80;99.90;;;-2.55;91.98;101437.41;4983568;28;20088;-76
2023/03/28 05:14:05;;;;;;;3.40;0.98;;;-0.70;99.90;;;-2.50;91.44;101441.81;4969331;28;20034;-76
2023/03/28 05:16:31;;;;;;;3.30;0.93;;;-0.70;99.90;;;-2.44;91.20;101442.75;4955413;28;20534;-76
2023/03/28 05:18:57;;;;;;;2.65;0.95;;;-0.70;99.90;;;-2.44;91.21;101447.91;4953844;28;20027;-76
2023/03/28 05:21:23;;;;;;;4.43;0.73;;;-0.60;99.90;;;-2.40;91.69;101447.13;4971612;28;20128;-76
2023/03/28 05:23:50;;;;;;;1.50;0.77;;;-0.60;99.90;;;-2.35;91.07;101456.69;4954342;28;20041;-76
2023/03/28 05:26:16;;;;;;;3.42;1.15;;;-0.60;99.90;;;-2.27;91.17;101460.28;4963025;28;20114;-76
2023/03/28 05:28:42;;;;;;;3.58;1.10;;;-0.50;99.90;;;-2.18;91.06;101464.75;4982187;28;20023;-76
2023/03/28 05:31:08;;;;;;;5.50;1.42;;;-0.40;99.90;;;-2.13;90.94;101468.25;4971448;28;20045;-76
2023/03/28 05:33:35;;;;;;;5.40;1.20;;;-0.30;99.90;;;-2.06;90.64;101469.22;4972324;28;20041;-76
2023/03/28 05:36:01;;;;;;;3.33;0.73;;;-0.30;99.90;;;-1.98;90.23;101469.38;4977602;28;20030;-76
2023/03/28 05:38:32;;;;;;;3.20;0.50;;;-0.20;99.90;;;-1.89;90.04;101475.53;4957857;28;20050;-76
2023/03/28 05:40:58;;;;;;;4.78;1.10;;;-0.10;99.90;;;-1.78;89.78;101480.03;4971364;28;20030;-75
2023/03/28 05:43:24;;;;;;;2.55;0.50;;;0.00;99.90;;;-1.72;89.19;101474.94;4971219;28;20035;-76
2023/03/28 05:45:50;;;;;;;4.38;0.85;;;0.00;99.90;;;-1.63;88.87;101492.31;4961216;28;20046;-76
2023/03/28 05:48:17;;;;;;;3.65;0.85;;;0.10;99.90;;;-1.59;88.84;101487.22;4971070;28;20023;-76
2023/03/28 05:50:46;;;;;;;2.60;1.08;;;0.20;99.90;;;-1.49;88.53;101496.84;4970137;28;20450;-76
2023/03/28 05:53:12;;;;;;;5.22;0.65;;;0.30;99.90;;;-1.42;88.09;101510.72;4988693;28;20039;-76
2023/03/28 05:55:37;;;;;;;2.33;0.57;;;0.30;99.90;;;-1.41;88.26;101516.75;4986202;28;20031;-76
2023/03/28 05:58:05;;;;;;;10.35;0.70;;;0.30;99.90;;;-1.37;87.77;101513.38;4979370;28;20034;-76
2023/03/28 06:00:31;;;;;;;4.18;0.88;;;;;;;-1.29;87.72;101527.28;4978510;28;20054;-76
2023/03/28 06:02:57;;;;;;;5.15;0.77;;;0.50;99.90;;;-1.17;87.56;101532.59;4975094;28;20066;-76
2023/03/28 06:05:24;;;;;;;4.20;1.10;;;0.60;99.90;;;-0.85;88.17;101539.94;4980001;28;20395;-76
2023/03/28 06:07:50;;;;;;;3.63;0.90;;;0.80;99.90;;;0.11;87.08;101557.41;4944425;28;20038;-77
2023/03/28 06:10:16;;;;;;;4.90;1.00;;;1.00;99.90;;;-0.05;85.99;101551.22;4976540;28;20058;-76
2023/03/28 06:12:42;;;;;;;6.32;0.80;;;1.20;99.90;;;0.11;84.51;101545.38;4993343;28;20124;-76
2023/03/28 06:15:09;;;;;;;3.53;0.77;;;1.40;99.90;;;0.56;83.04;101559.56;4947558;28;20039;-76
2023/03/28 06:17:35;;;;;;;1.73;0.70;;;1.60;99.90;;;0.65;82.17;101563.06;4976954;28;20279;-76
2023/03/28 06:20:05;;;;;;;7.07;1.50;;;1.70;99.90;;;0.33;81.04;101561.09;4993709;28;20042;-76
2023/03/28 06:22:31;;;;;;;7.35;0.70;;;1.60;99.90;;;0.26;79.99;101564.47;4969610;28;20376;-76
2023/03/28 06:24:57;;;;;;;4.82;0.80;;;1.80;99.90;;;1.17;80.23;101577.28;4972623;28;20525;-77
2023/03/28 06:27:23;;;;;;;8.50;0.88;;;2.10;99.90;;;2.04;75.70;101591.47;4977533;28;20439;-77
2023/03/28 06:29:49;;;;;;;2.33;0.70;;;2.50;99.90;;;3.81;72.94;101615.56;4972807;28;20034;-77
2023/03/28 06:32:16;;;;;;;2.90;0.47;;;3.10;99.90;;;3.90;67.80;101594.69;4971868;28;20854;-77
2023/03/28 06:34:42;;;;;;;2.85;0.75;;;3.50;99.90;;;3.90;66.45;101591.22;4968854;28;20034;-77
2023/03/28 06:37:08;;;;;;;3.38;0.80;;;3.50;99.90;;;2.60;67.45;101589.81;4971493;28;20568;-77
2023/03/28 06:39:34;;;;;;;1.20;0.85;;;3.30;99.90;;;3.17;69.17;101613.16;4970047;28;20041;-77
2023/03/28 06:42:02;;;;;;;1.48;0.60;;;3.10;99.90;;;1.79;69.88;101601.78;4964639;28;20046;-77
2023/03/28 06:44:30;;;;;;;1.55;0.75;;;2.90;99.90;;;1.56;70.94;101591.31;4953630;28;20117;-77
2023/03/28 06:46:57;;;;;;;4.53;0.80;;;2.80;99.90;;;2.22;70.14;101619.22;4961943;28;20034;-77
2023/03/28 06:49:23;;;;;;;0.60;0.55;;;3.00;99.90;;;3.39;68.03;101635.69;4958120;28;20056;-77
2023/03/28 06:51:49;;;;;;;5.65;0.90;;;3.40;99.90;;;5.30;65.21;101671.06;4980314;28;20057;-77
2023/03/28 06:54:14;;;;;;;4.28;0.90;;;4.20;99.90;;;8.01;58.66;101704.53;4955509;28;20481;-77
2023/03/28 06:56:40;;;;;;;2.40;0.88;;;5.20;99.90;;;8.29;54.03;101689.09;4964104;28;20057;-77
2023/03/28 06:59:08;;;;;;;2.65;0.57;;;6.00;99.90;;;9.32;52.30;101712.09;4967868;28;20121;-77
2023/03/28 07:01:34;;;;;;;3.05;0.68;;;6.60;99.90;;;9.98;49.85;101726.97;4970107;28;20046;-77
2023/03/28 07:04:01;;;;;;;1.58;0.52;;;7.30;99.90;;;10.88;47.75;101748.91;4981451;28;20115;-77
2023/03/28 07:06:27;;;;;;;1.73;0.88;;;7.40;99.90;;;9.72;48.89;101739.97;4960474;28;20079;-78
2023/03/28 07:08:58;;;;;;;1.35;0.57;;;8.00;99.90;;;10.44;47.55;101746.72;4951148;28;20062;-77
2023/03/28 07:11:24;;;;;;;3.05;0.82;;;8.40;99.90;;;10.63;46.91;101762.00;4958871;28;20058;-77
2023/03/28 07:13:50;;;;;;;1.95;0.70;;;8.80;99.90;;;10.68;45.76;101768.81;4938280;28;20077;-77
2023/03/28 07:16:16;;;;;;;1.83;0.68;;;9.10;99.10;;;11.18;44.88;101786.59;4970543;28;20168;-77
2023/03/28 07:18:43;;;;;;;4.20;0.60;;;9.30;97.80;;;10.72;44.43;101774.03;4954827;28;20036;-77
2023/03/28 07:21:17;;;;;;;1.25;0.50;;;9.20;98.00;;;10.18;45.22;101773.78;4971201;28;20055;-77
2023/03/28 07:23:46;;;;;;;2.55;0.73;;;9.30;97.60;;;10.43;45.49;101789.78;4942692;28;20118;-77
2023/03/28 07:26:13;;;;;;;2.03;0.35;;;9.70;96.20;;;10.23;43.23;101789.44;4980803;28;20064;-77
2023/03/28 07:28:39;;;;;;;1.75;0.60;;;9.30;95.00;;;9.37;44.17;101784.69;4974851;28;20074;-77
2023/03/28 07:31:06;;;;;;;2.28;0.50;;;9.30;94.50;;;9.54;43.92;101805.28;4970416;28;20030;-77
2023/03/28 07:33:34;;;;;;;0.80;0.35;;;9.00;93.80;;;8.82;44.45;101792.09;4969148;28;20031;-77
2023/03/28 07:36:07;;;;;;;0.80;0.63;;;9.40;93.40;;;9.48;43.15;101810.72;4976303;28;20553;-77
2023/03/28 07:38:34;;;;;;;2.05;0.50;;;9.80;93.20;;;10.02;43.13;101835.63;4966243;28;20037;-77
2023/03/28 07:41:00;;;;;;;1.08;0.40;;;10.40;92.80;;;10.74;42.49;101853.88;4968551;28;20416;-77
2023/03/28 07:43:26;;;;;;;1.63;0.45;;;10.50;91.60;;;10.52;41.24;101859.75;4985870;28;20395;-77
2023/03/28 07:45:57;;;;;;;3.05;0.40;;;10.80;91.00;;;10.72;41.44;101871.47;4987033;28;20022;-77
2023/03/28 07:48:24;;;;;;;2.13;0.55;;;10.70;91.90;;;10.47;42.25;101866.91;4956926;28;20714;-77
2023/03/28 07:50:50;;;;;;;0.38;0.28;;;10.40;88.80;;;9.13;40.77;101846.56;4953193;28;20088;-77
2023/03/28 07:53:16;;;;;;;0.50;0.40;;;10.30;90.70;;;9.23;42.06;101865.63;4971017;28;20034;-77
2023/03/28 07:55:42;;;;;;;0.80;0.40;;;10.30;91.80;;;9.70;42.65;101870.63;4976577;28;20046;-77
2023/03/28 07:58:09;;;;;;;1.08;0.40;;;10.60;90.30;;;9.59;41.20;101866.53;4985844;28;20518;-78
2023/03/28 08:00:34;;;;;;;0.45;0.38;;;10.50;92.10;;;9.73;43.19;101881.09;4972295;28;20054;-77
2023/03/28 08:03:00;;;;;;;2.17;0.52;;;10.70;91.80;;;9.72;42.88;101882.88;4989932;28;20426;-77
2023/03/28 08:05:26;;;;;;;1.40;0.40;;;10.60;89.80;;;9.49;42.14;101883.41;4984775;28;20093;-77
2023/03/28 08:07:52;;;;;;;1.55;0.30;;;10.60;88.10;;;9.02;40.96;101886.22;4958558;28;20399;-77
2023/03/28 08:10:21;;;;;;;2.72;0.50;;;10.40;89.00;;;8.83;42.04;101885.75;4976769;28;20160;-77
2023/03/28 08:12:47;;;;;;;2.28;0.50;;;10.30;86.80;;;8.71;41.15;101893.88;4972165;28;20054;-77
2023/03/28 08:15:12;;;;;;;2.38;0.60;;;9.90;90.20;;;8.05;42.69;101888.97;4951152;28;20399;-77
2023/03/28 08:17:38;;;;;;;0.57;0.38;;;10.00;90.40;;;8.27;43.80;101887.72;4951708;28;20043;-76
2023/03/28 08:20:11;;;;;;;0.68;0.40;;;10.20;91.60;;;8.65;43.67;101895.75;4975921;28;20479;-77
2023/03/28 08:22:37;;;;;;;1.20;0.30;;;10.10;90.80;;;8.34;43.97;101897.19;4952159;28;20053;-77
2023/03/28 08:25:05;;;;;;;4.22;0.45;;;10.10;89.40;;;8.34;42.52;101907.69;4957981;28;20046;-76
2023/03/28 08:27:31;;;;;;;5.15;0.52;;;10.00;90.20;;;8.30;42.99;101913.88;4983277;28;20110;-77
2023/03/28 08:29:57;;;;;;;0.47;0.20;;;10.00;90.40;;;7.80;42.26;101907.75;4985393;28;20392;-76
2023/03/28 08:32:22;;;;;;;1.17;0.38;;;9.90;91.50;;;7.98;44.33;101907.44;4970073;28;20049;-77
2023/03/28 08:34:48;;;;;;;2.63;0.55;;;9.70;91.30;;;7.93;44.04;101909.28;4958911;28;20038;-76
2023/03/28 08:37:14;;;;;;;2.10;0.52;;;9.80;90.20;;;8.00;43.27;101917.91;4961861;28;20443;-76
2023/03/28 08:39:41;;;;;;;1.40;0.40;;;9.90;91.00;;;8.10;44.49;101913.34;4962649;28;20076;-77
2023/03/28 08:42:41;;;;;;;1.90;0.40;;;9.80;92.10;;;7.69;44.50;101912.28;4967962;28;20572;-77
2023/03/28 08:45:51;;;;;;;0.95;0.57;;;9.70;93.90;;;7.67;47.27;101900.97;4963165;28;20527;-77
2023/03/28 08:48:46;;;;;;;1.88;0.50;;;9.20;92.40;;;6.93;46.21;101902.00;4954516;28;20069;-76
2023/03/28 08:51:21;;;;;;;4.93;0.40;;;9.00;93.30;;;7.08;47.60;101914.88;4976890;28;20112;-77
2023/03/28 08:54:09;;;;;;;1.27;0.50;;;8.80;93.20;;;7.04;47.11;101913.22;4972510;28;20044;-77
2023/03/28 08:56:44;;;;;;;0.45;0.20;;;8.80;93.50;;;6.82;47.42;101902.13;4985541;28;20027;-76
2023/03/28 08:59:22;;;;;;;2.08;0.60;;;8.80;94.30;;;6.99;47.77;101907.16;4963288;28;20049;-77
2023/03/28 09:01:48;;;;;;;2.13;0.40;;;8.50;95.10;;;6.46;48.87;101900.81;4973319;28;20034;-77
2023/03/28 09:04:33;;;;;;;1.15;0.50;;;8.00;94.40;;;5.47;49.24;101883.34;4968555;28;20042;-77
2023/03/28 09:07:11;;;;;;;4.25;0.50;;;7.20;95.80;;;5.02;50.72;101887.97;5009900;28;20023;-76
2023/03/28 09:10:12;;;;;;;1.50;0.47;;;6.70;96.30;;;4.98;51.89;101891.47;4963000;28;20456;-76
2023/03/28 09:13:21;;;;;;;1.70;0.60;;;6.60;96.30;;;5.10;51.18;101901.84;5003280;28;20112;-77
2023/03/28 09:16:20;;;;;;;2.45;0.73;;;6.60;97.00;;;5.11;51.61;101898.34;4978646;28;20641;-77
2023/03/28 09:19:31;;;;;;;2.63;0.50;;;6.30;98.00;;;4.89;52.08;101908.03;4997113;28;20436;-77
2023/03/28 09:22:16;;;;;;;0.77;0.32;;;6.00;96.50;;;4.23;52.14;101908.22;4974548;28;20042;-77
2023/03/28 09:24:57;;;;;;;1.40;0.30;;;5.60;97.80;;;3.89;53.15;101903.03;4964747;28;20093;-77
2023/03/28 09:28:09;;;;;;;0.50;0.30;;;5.40;99.00;;;3.39;54.59;101882.16;4981676;28;20133;-77
2023/03/28 09:30:44;;;;;;;0.50;0.35;;;5.00;98.70;;;3.13;55.35;101880.34;4935040;28;20046;-77
2023/03/28 09:33:20;;;;;;;3.50;0.63;;;4.80;99.30;;;3.10;55.71;101892.50;4982283;28;20050;-77
2023/03/28 09:35:57;;;;;;;1.15;0.50;;;4.70;99.90;;;3.14;56.03;101902.94;4989938;28;20415;-77
2023/03/28 09:38:35;;;;;;;1.38;0.43;;;4.70;99.90;;;3.18;56.68;101901.22;5004142;28;20699;-76
2023/03/28 09:41:10;;;;;;;0.75;0.38;;;4.80;99.60;;;3.28;56.56;101908.16;4991673;28;20074;-77
2023/03/28 09:44:00;;;;;;;4.60;0.47;;;4.80;99.90;;;3.32;57.28;101916.84;4970831;28;20099;-77
2023/03/28 09:46:37;;;;;;;1.05;0.60;;;4.80;99.90;;;3.10;57.31;101906.38;4989044;28;20492;-77
2023/03/28 09:49:04;;;;;;;0.82;0.50;;;4.70;99.90;;;3.14;57.56;101918.53;4990539;28;20035;-76
2023/03/28 09:51:33;;;;;;;1.48;0.35;;;4.80;99.90;;;3.18;56.49;101912.47;4988422;28;20042;-77
2023/03/28 09:54:08;;;;;;;1.27;0.50;;;4.80;99.90;;;3.27;57.61;101911.63;4969153;28;20038;-77
2023/03/28 09:56:43;;;;;;;2.67;0.68;;;4.90;99.90;;;3.34;58.08;101915.97;4958369;28;20027;-76
2023/03/28 09:59:31;;;;;;;1.17;0.50;;;4.90;99.90;;;3.39;57.79;101924.69;4970326;28;20030;-77
2023/03/28 10:02:01;;;;;;;2.17;0.50;;;4.90;99.90;;;3.38;57.23;101924.69;4989024;28;20038;-77
2023/03/28 10:04:27;;;;;;;2.97;0.52;;;4.90;99.90;;;3.35;57.27;101922.94;4960861;28;20039;-76
2023/03/28 10:07:31;;;;;;;1.00;0.30;;;5.00;99.90;;;3.40;56.66;101934.22;4980721;28;20047;-77
2023/03/28 10:10:20;;;;;;;2.00;0.60;;;5.10;99.90;;;3.58;58.88;101928.19;4919765;28;20048;-77
2023/03/28 10:12:48;;;;;;;1.80;0.47;;;5.20;99.90;;;3.72;58.85;101933.44;4972703;28;20038;-77
2023/03/28 10:15:48;;;;;;;2.20;0.50;;;5.20;99.90;;;3.69;56.55;101949.94;4971736;28;20035;-77
2023/03/28 10:18:20;;;;;;;2.00;0.80;;;5.10;99.90;;;3.67;56.73;101942.94;4971045;28;20514;-77
2023/03/28 10:20:50;;;;;;;2.67;0.88;;;5.30;99.90;;;3.93;56.80;101956.03;4990053;28;20086;-77
2023/03/28 10:23:19;;;;;;;1.17;0.50;;;5.30;99.90;;;3.88;55.82;101956.00;4976291;28;20812;-76
2023/03/28 10:25:51;;;;;;;1.85;0.40;;;5.30;98.20;;;3.63;54.12;101956.88;4990395;28;20049;-77
2023/03/28 10:28:33;;;;;;;1.38;0.60;;;5.20;97.70;;;3.67;53.19;101963.78;4990728;28;20089;-77
2023/03/28 10:31:01;;;;;;;1.52;0.50;;;5.20;97.80;;;3.67;53.45;101963.78;5004503;28;20085;-77
2023/03/28 10:33:34;;;;;;;2.15;0.40;;;5.40;98.70;;;3.90;53.68;101967.28;4982211;28;20090;-77
2023/03/28 10:36:09;;;;;;;3.33;0.35;;;5.40;99.70;;;3.92;54.52;101972.53;4962615;28;20030;-77
2023/03/28 10:38:47;;;;;;;5.97;0.85;;;5.40;98.10;;;3.93;53.40;101981.19;4957114;28;20186;-77
2023/03/28 10:41:28;;;;;;;2.83;0.60;;;5.50;99.90;;;4.15;55.43;101975.16;4972342;28;20034;-77